createdAt,value
2018-09-13T00:02:18.608Z,62.30
2018-09-13T00:04:57.623Z,61.90
2018-09-13T00:07:36.752Z,62.10
2018-09-13T00:10:16.675Z,62.80
2018-09-13T00:12:52.187Z,62.60
2018-09-13T00:15:29.677Z,62.70
2018-09-13T00:18:09.051Z,62.70
2018-09-13T00:20:45.895Z,62.60
2018-09-13T00:23:22.058Z,63.00
2018-09-13T00:25:58.294Z,63.30
2018-09-13T00:28:32.054Z,63.90
2018-09-13T00:31:11.601Z,63.40
2018-09-13T00:33:49.933Z,63.40
2018-09-13T00:36:26.556Z,64.00
2018-09-13T00:39:07.516Z,64.40
2018-09-13T00:41:43.742Z,64.30
2018-09-13T00:44:22.998Z,64.50
2018-09-13T00:47:03.466Z,64.70
2018-09-13T00:49:43.324Z,65.00
2018-09-13T00:52:23.732Z,65.50
2018-09-13T00:55:02.765Z,65.60
2018-09-13T00:57:39.129Z,65.10
2018-09-13T01:00:19.357Z,65.90
2018-09-13T01:02:58.755Z,65.40
2018-09-13T01:05:38.569Z,65.80
2018-09-13T01:08:18.406Z,65.80
2018-09-13T01:10:58.164Z,65.90
2018-09-13T01:13:38.014Z,64.70
2018-09-13T01:16:17.161Z,65.00
2018-09-13T01:18:57.136Z,64.50
2018-09-13T01:21:36.256Z,65.40
2018-09-13T01:24:15.719Z,65.20
2018-09-13T01:26:54.719Z,64.90
2018-09-13T01:29:33.643Z,65.80
2018-09-13T01:32:13.129Z,65.60
2018-09-13T01:34:53.314Z,64.50
2018-09-13T01:37:32.751Z,64.90
2018-09-13T01:40:11.584Z,64.50
2018-09-13T01:42:50.708Z,65.00
2018-09-13T01:45:29.417Z,64.60
2018-09-13T01:48:09.611Z,64.50
2018-09-13T01:50:43.932Z,64.40
2018-09-13T01:53:23.228Z,64.50
2018-09-13T01:55:53.505Z,64.20
2018-09-13T01:58:32.425Z,64.40
2018-09-13T02:01:10.779Z,65.20
2018-09-13T02:03:50.617Z,65.00
2018-09-13T02:06:30.347Z,63.60
2018-09-13T02:09:08.750Z,64.10
2018-09-13T02:11:49.698Z,63.20
2018-09-13T02:14:29.419Z,64.40
2018-09-13T02:17:09.052Z,64.10
2018-09-13T02:19:48.890Z,64.00
2018-09-13T02:22:29.102Z,64.10
2018-09-13T02:25:07.110Z,63.70
2018-09-13T02:27:46.289Z,64.20
2018-09-13T02:30:24.783Z,64.50
2018-09-13T02:33:04.091Z,65.00
2018-09-13T02:35:43.206Z,64.70
2018-09-13T02:38:15.065Z,64.70
2018-09-13T02:40:53.857Z,64.10
2018-09-13T02:43:34.792Z,64.60
2018-09-13T02:46:14.247Z,65.30
2018-09-13T02:48:54.123Z,65.00
2018-09-13T02:51:32.950Z,64.50
2018-09-13T02:54:12.073Z,64.80
2018-09-13T02:56:52.170Z,64.70
2018-09-13T02:59:23.935Z,65.20
2018-09-13T03:02:03.417Z,65.40
2018-09-13T03:04:43.577Z,65.60
2018-09-13T03:07:23.764Z,65.90
2018-09-13T03:09:56.376Z,65.70
2018-09-13T03:12:27.734Z,65.40
2018-09-13T03:14:59.784Z,65.30
2018-09-13T03:17:35.304Z,65.60
2018-09-13T03:20:15.257Z,66.30
2018-09-13T03:22:54.620Z,66.50
2018-09-13T03:25:34.177Z,66.80
2018-09-13T03:28:13.058Z,66.80
2018-09-13T03:30:50.168Z,66.70
2018-09-13T03:33:29.571Z,67.10
2018-09-13T03:36:08.700Z,67.30
2018-09-13T03:38:45.938Z,67.30
2018-09-13T03:41:20.734Z,66.90
2018-09-13T03:44:00.014Z,67.30
2018-09-13T03:46:37.643Z,67.10
2018-09-13T03:49:17.980Z,67.30
2018-09-13T03:51:55.861Z,67.50
2018-09-13T03:54:31.382Z,67.90
2018-09-13T03:57:06.628Z,68.00
2018-09-13T03:59:43.878Z,67.80
2018-09-13T04:02:23.301Z,68.00
2018-09-13T04:05:02.650Z,68.40
2018-09-13T04:07:42.408Z,68.30
2018-09-13T04:10:21.905Z,68.80
2018-09-13T04:13:01.089Z,68.60
2018-09-13T04:15:39.184Z,68.60
2018-09-13T04:18:18.052Z,69.10
2018-09-13T04:20:50.381Z,68.60
2018-09-13T04:23:28.509Z,68.70
2018-09-13T04:26:08.765Z,68.60
2018-09-13T04:28:48.399Z,69.10
2018-09-13T04:31:23.326Z,69.10
2018-09-13T04:33:55.397Z,68.90
2018-09-13T04:36:31.848Z,68.90
2018-09-13T04:39:08.271Z,69.10
2018-09-13T04:41:48.272Z,69.00
2018-09-13T04:44:28.972Z,69.40
2018-09-13T04:47:09.485Z,69.50
2018-09-13T04:49:48.346Z,69.20
2018-09-13T04:52:28.598Z,69.40
2018-09-13T04:55:06.496Z,69.40
2018-09-13T04:57:45.583Z,69.60
2018-09-13T05:00:23.591Z,69.20
2018-09-13T05:03:03.302Z,69.30
2018-09-13T05:05:43.253Z,68.90
2018-09-13T05:08:23.208Z,68.20
2018-09-13T05:11:02.272Z,68.00
2018-09-13T05:13:37.456Z,67.00
2018-09-13T05:16:16.812Z,68.50
2018-09-13T05:18:56.234Z,68.00
2018-09-13T05:21:35.668Z,68.40
2018-09-13T05:24:13.255Z,68.00
2018-09-13T05:26:52.995Z,67.50
2018-09-13T05:29:24.726Z,66.40
2018-09-13T05:32:02.684Z,65.60
2018-09-13T05:34:42.507Z,65.80
2018-09-13T05:37:14.395Z,66.10
2018-09-13T05:39:54.423Z,66.10
2018-09-13T05:42:33.068Z,66.20
2018-09-13T05:45:08.960Z,66.00
2018-09-13T05:47:46.562Z,65.90
2018-09-13T05:50:25.932Z,66.10
2018-09-13T05:53:04.789Z,65.80
2018-09-13T05:55:41.958Z,65.90
2018-09-13T05:58:20.830Z,65.90
2018-09-13T06:00:59.464Z,65.70
2018-09-13T06:03:38.264Z,65.80
2018-09-13T06:06:17.130Z,65.70
2018-09-13T06:08:56.114Z,65.80
2018-09-13T06:11:32.624Z,66.10
2018-09-13T06:14:08.773Z,67.10
2018-09-13T06:16:40.482Z,66.80
2018-09-13T06:19:19.487Z,66.60
2018-09-13T06:21:58.545Z,66.00
2018-09-13T06:24:37.667Z,66.50
2018-09-13T06:27:16.823Z,66.50
2018-09-13T06:29:56.519Z,66.50
2018-09-13T06:32:34.508Z,66.50
2018-09-13T06:35:13.565Z,66.10
2018-09-13T06:37:43.989Z,66.50
2018-09-13T06:40:13.765Z,66.40
2018-09-13T06:42:43.636Z,66.80
2018-09-13T06:45:16.226Z,66.00
2018-09-13T06:47:47.366Z,65.50
2018-09-13T06:50:18.796Z,65.50
2018-09-13T06:52:51.177Z,65.40
2018-09-13T06:55:20.974Z,65.30
2018-09-13T06:57:52.580Z,64.90
2018-09-13T07:00:22.415Z,65.00
2018-09-13T07:02:54.596Z,64.50
2018-09-13T07:05:24.795Z,64.10
2018-09-13T07:08:02.287Z,64.50
2018-09-13T07:10:32.630Z,64.20
2018-09-13T07:13:04.610Z,65.40
2018-09-13T07:15:36.390Z,64.50
2018-09-13T07:18:16.443Z,64.20
2018-09-13T07:20:56.470Z,64.10
2018-09-13T07:23:36.612Z,65.00
2018-09-13T07:26:17.175Z,65.40
2018-09-13T07:28:50.640Z,64.20
2018-09-13T07:31:22.322Z,64.10
2018-09-13T07:34:01.743Z,65.00
2018-09-13T07:36:32.722Z,64.60
2018-09-13T07:39:04.233Z,64.00
2018-09-13T07:41:35.524Z,64.10
2018-09-13T07:44:06.772Z,64.50
2018-09-13T07:46:38.523Z,63.70
2018-09-13T07:49:09.605Z,63.50
2018-09-13T07:51:41.351Z,63.90
2018-09-13T07:54:12.372Z,63.30
2018-09-13T07:56:43.833Z,62.30
2018-09-13T07:59:16.051Z,61.50
2018-09-13T08:01:47.202Z,61.40
2018-09-13T08:04:18.472Z,62.70
2018-09-13T08:06:49.293Z,62.50
2018-09-13T08:09:20.831Z,62.50
2018-09-13T08:11:52.767Z,62.60
2018-09-13T08:14:23.733Z,62.70
2018-09-13T08:16:53.760Z,61.90
2018-09-13T08:19:25.186Z,62.00
2018-09-13T08:22:03.692Z,61.40
2018-09-13T08:24:34.223Z,61.50
2018-09-13T08:27:04.300Z,61.20
2018-09-13T08:29:34.123Z,61.00
2018-09-13T08:32:13.862Z,62.10
2018-09-13T08:34:44.553Z,61.30
2018-09-13T08:37:14.817Z,61.20
2018-09-13T08:39:44.993Z,61.70
2018-09-13T08:42:24.022Z,61.00
2018-09-13T08:44:55.243Z,60.30
2018-09-13T08:47:25.357Z,60.00
2018-09-13T08:49:55.993Z,59.80
2018-09-13T08:52:26.609Z,59.50
2018-09-13T08:54:57.534Z,59.40
2018-09-13T08:57:28.373Z,58.10
2018-09-13T08:59:58.534Z,58.90
2018-09-13T09:02:28.623Z,59.20
2018-09-13T09:04:59.131Z,60.10
2018-09-13T09:07:29.742Z,59.40
2018-09-13T09:09:59.882Z,58.40
2018-09-13T09:12:30.912Z,58.70
2018-09-13T09:15:02.423Z,59.50
2018-09-13T09:17:36.789Z,57.60
2018-09-13T09:20:06.760Z,58.30
2018-09-13T09:22:51.347Z,58.60
2018-09-13T09:25:22.611Z,58.20
2018-09-13T09:27:54.659Z,58.20
2018-09-13T09:30:24.829Z,58.50
2018-09-13T09:32:58.719Z,57.80
2018-09-13T09:35:28.419Z,58.40
2018-09-13T09:37:58.610Z,56.80
2018-09-13T09:40:29.962Z,56.80
2018-09-13T09:43:03.229Z,56.50
2018-09-13T09:45:34.309Z,56.40
2018-09-13T09:48:04.751Z,56.20
2018-09-13T09:50:35.929Z,55.70
2018-09-13T09:53:10.970Z,55.80
2018-09-13T09:55:41.458Z,56.30
2018-09-13T09:58:11.721Z,56.90
2018-09-13T10:00:47.690Z,56.70
2018-09-13T10:03:19.082Z,56.70
2018-09-13T10:05:49.479Z,56.80
2018-09-13T10:08:22.090Z,57.60
2018-09-13T10:10:53.771Z,57.70
2018-09-13T10:13:25.068Z,58.20
2018-09-13T10:16:01.161Z,56.60
2018-09-13T10:18:37.957Z,56.50
2018-09-13T10:21:14.566Z,56.20
2018-09-13T10:23:54.001Z,56.40
2018-09-13T10:26:29.357Z,56.30
2018-09-13T10:29:04.745Z,56.50
2018-09-13T10:31:41.430Z,56.70
2018-09-13T10:34:17.428Z,57.10
2018-09-13T10:36:54.108Z,57.30
2018-09-13T10:39:37.849Z,57.40
2018-09-13T10:42:22.207Z,57.40
2018-09-13T10:46:05.373Z,57.60
2018-09-13T10:48:49.429Z,57.10
2018-09-13T10:51:32.961Z,56.60
2018-09-13T10:54:17.001Z,57.10
2018-09-13T10:56:55.972Z,57.10
2018-09-13T10:59:35.399Z,58.00
2018-09-13T11:02:14.503Z,58.10
2018-09-13T11:04:53.897Z,58.00
2018-09-13T11:07:32.765Z,57.90
2018-09-13T11:10:12.240Z,58.60
2018-09-13T11:12:53.790Z,58.80
2018-09-13T11:15:30.123Z,58.90
2018-09-13T11:18:02.062Z,58.30
2018-09-13T11:20:38.983Z,57.80
2018-09-13T11:23:18.962Z,56.70
2018-09-13T11:25:58.040Z,56.10
2018-09-13T11:28:36.845Z,55.90
2018-09-13T11:31:15.459Z,56.50
2018-09-13T11:33:54.352Z,55.70
2018-09-13T11:36:34.719Z,55.00
2018-09-13T11:39:14.618Z,55.10
2018-09-13T11:41:54.944Z,52.60
2018-09-13T11:44:34.436Z,51.90
2018-09-13T11:47:14.729Z,51.20
2018-09-13T11:49:55.043Z,50.70
2018-09-13T11:52:34.976Z,50.70
2018-09-13T11:55:13.828Z,50.50
2018-09-13T11:57:53.374Z,51.10
2018-09-13T12:00:32.515Z,51.30
2018-09-13T12:03:12.963Z,51.00
2018-09-13T12:05:51.730Z,51.80
2018-09-13T12:08:31.076Z,51.40
2018-09-13T12:11:10.628Z,52.40
2018-09-13T12:13:50.141Z,51.30
2018-09-13T12:16:21.511Z,51.20
2018-09-13T12:19:00.150Z,51.70
2018-09-13T12:21:38.940Z,51.40
2018-09-13T12:24:18.066Z,53.00
2018-09-13T12:26:56.899Z,52.50
2018-09-13T12:29:35.904Z,51.60
2018-09-13T12:32:15.674Z,52.60
2018-09-13T12:34:54.906Z,50.30
2018-09-13T12:37:34.826Z,50.00
2018-09-13T12:40:14.392Z,51.00
2018-09-13T12:42:52.984Z,52.10
2018-09-13T12:45:32.136Z,51.70
2018-09-13T12:48:11.119Z,52.40
2018-09-13T12:50:50.664Z,51.90
2018-09-13T12:53:30.157Z,50.80
2018-09-13T12:56:09.543Z,50.40
2018-09-13T12:58:48.857Z,50.40
2018-09-13T13:01:28.656Z,50.50
2018-09-13T13:04:07.597Z,50.10
2018-09-13T13:06:46.734Z,50.00
2018-09-13T13:09:25.454Z,49.70
2018-09-13T13:12:04.405Z,49.00
2018-09-13T13:14:43.095Z,48.90
2018-09-13T13:17:21.989Z,48.90
2018-09-13T13:20:00.541Z,49.60
2018-09-13T13:22:39.509Z,48.40
2018-09-13T13:25:18.163Z,49.50
2018-09-13T13:27:57.178Z,48.30
2018-09-13T13:30:36.228Z,49.60
2018-09-13T13:33:15.520Z,49.70
2018-09-13T13:35:54.269Z,50.10
2018-09-13T13:38:33.291Z,50.70
2018-09-13T13:41:12.030Z,50.80
2018-09-13T13:43:51.160Z,51.60
2018-09-13T13:46:29.946Z,50.70
2018-09-13T13:49:09.998Z,51.00
2018-09-13T13:51:48.996Z,50.30
2018-09-13T13:54:28.573Z,51.70
2018-09-13T13:57:08.146Z,51.10
2018-09-13T13:59:47.243Z,51.50
2018-09-13T14:02:25.756Z,51.70
2018-09-13T14:05:05.131Z,52.90
2018-09-13T14:07:42.152Z,52.40
2018-09-13T14:10:21.467Z,52.90
2018-09-13T14:12:58.124Z,53.80
2018-09-13T14:15:37.706Z,54.30
2018-09-13T14:18:16.509Z,54.70
2018-09-13T14:20:56.032Z,53.30
2018-09-13T14:23:34.857Z,54.30
2018-09-13T14:26:14.291Z,54.80
2018-09-13T14:28:53.370Z,54.60
2018-09-13T14:31:33.804Z,54.70
2018-09-13T14:34:13.307Z,55.20
2018-09-13T14:36:52.608Z,54.90
2018-09-13T14:39:32.241Z,54.50
2018-09-13T14:42:12.178Z,54.30
2018-09-13T14:44:51.811Z,54.90
2018-09-13T14:47:31.329Z,55.10
2018-09-13T14:50:10.347Z,55.20
2018-09-13T14:52:49.843Z,54.70
2018-09-13T14:55:28.737Z,54.90
2018-09-13T14:58:07.541Z,55.10
2018-09-13T15:00:46.558Z,56.00
2018-09-13T15:03:25.940Z,54.50
2018-09-13T15:06:04.700Z,54.20
2018-09-13T15:08:43.968Z,54.50
2018-09-13T15:11:22.912Z,54.80
2018-09-13T15:14:01.733Z,55.30
2018-09-13T15:16:37.426Z,54.80
2018-09-13T15:19:16.279Z,54.70
2018-09-13T15:21:55.046Z,55.40
2018-09-13T15:24:33.783Z,55.30
2018-09-13T15:27:12.714Z,54.10
2018-09-13T15:29:52.174Z,53.50
2018-09-13T15:32:31.235Z,53.70
2018-09-13T15:35:10.345Z,54.00
2018-09-13T15:37:49.261Z,54.90
2018-09-13T15:40:28.681Z,55.40
2018-09-13T15:43:07.633Z,55.80
2018-09-13T15:45:46.722Z,56.10
2018-09-13T15:48:25.776Z,55.30
2018-09-13T15:50:56.365Z,56.10
2018-09-13T15:53:28.396Z,55.80
2018-09-13T15:55:59.819Z,55.50
2018-09-13T15:58:30.865Z,55.80
2018-09-13T16:01:02.516Z,57.10
2018-09-13T16:03:32.757Z,57.40
2018-09-13T16:06:02.885Z,58.10
2018-09-13T16:08:33.365Z,58.10
2018-09-13T16:11:03.426Z,58.60
2018-09-13T16:13:34.795Z,58.70
2018-09-13T16:16:06.895Z,58.90
2018-09-13T16:18:38.418Z,58.90
2018-09-13T16:21:09.541Z,59.10
2018-09-13T16:23:40.467Z,59.10
2018-09-13T16:26:10.512Z,59.20
2018-09-13T16:28:40.657Z,59.30
2018-09-13T16:31:12.084Z,59.50
2018-09-13T16:33:43.397Z,59.60
2018-09-13T16:36:24.427Z,60.10
2018-09-13T16:39:01.278Z,60.40
2018-09-13T16:41:41.618Z,60.10
2018-09-13T16:45:15.007Z,60.40
2018-09-13T16:47:51.652Z,60.50
2018-09-13T16:50:23.634Z,61.00
2018-09-13T16:52:55.337Z,60.70
2018-09-13T16:55:26.901Z,61.50
2018-09-13T16:58:00.153Z,63.10
2018-09-13T17:00:32.714Z,65.60
2018-09-13T17:03:05.467Z,66.00
2018-09-13T17:05:36.566Z,66.50
2018-09-13T17:08:09.036Z,68.40
2018-09-13T17:10:40.469Z,68.80
2018-09-13T17:13:13.979Z,65.80
2018-09-13T17:15:45.598Z,65.80
2018-09-13T17:18:17.609Z,65.20
2018-09-13T17:20:48.047Z,64.80
2018-09-13T17:23:19.966Z,64.30
2018-09-13T17:25:49.858Z,63.70
2018-09-13T17:28:22.443Z,64.30
2018-09-13T17:30:54.633Z,63.70
2018-09-13T17:33:34.012Z,62.60
2018-09-13T17:36:13.019Z,62.30
2018-09-13T17:38:44.761Z,62.20
2018-09-13T17:41:23.899Z,62.00
2018-09-13T17:44:03.246Z,62.60
2018-09-13T17:46:35.098Z,61.80
2018-09-13T17:49:04.899Z,63.30
2018-09-13T17:51:37.243Z,63.50
2018-09-13T17:54:07.864Z,64.10
2018-09-13T17:56:47.037Z,63.70
2018-09-13T17:59:26.265Z,63.80
2018-09-13T18:01:57.934Z,63.80
2018-09-13T18:04:37.400Z,63.90
2018-09-13T18:14:17.880Z,64.30
2018-09-13T18:16:50.251Z,65.00
2018-09-13T18:19:29.596Z,65.50
2018-09-13T18:22:14.176Z,66.30
2018-09-13T18:24:45.836Z,66.30
2018-09-13T18:27:16.236Z,67.00
2018-09-13T18:29:48.306Z,67.10
2018-09-13T18:32:19.648Z,67.50
2018-09-13T18:34:51.676Z,68.10
2018-09-13T18:37:23.797Z,67.50
2018-09-13T18:39:55.696Z,67.30
2018-09-13T18:42:27.167Z,68.00
2018-09-13T18:44:58.547Z,67.90
2018-09-13T18:47:30.217Z,68.30
2018-09-13T18:50:02.047Z,68.70
2018-09-13T18:52:34.192Z,68.90
2018-09-13T18:55:05.375Z,69.80
2018-09-13T18:57:36.384Z,70.30
2018-09-13T19:00:07.871Z,70.50
2018-09-13T19:11:08.563Z,71.70
2018-09-13T19:17:23.302Z,74.10
2018-09-13T19:22:59.272Z,74.50
2018-09-13T21:51:51.630Z,74.80
2018-09-13T21:54:37.599Z,75.80
2018-09-13T21:57:23.048Z,80.70
2018-09-13T22:00:08.127Z,81.10
2018-09-13T22:02:53.335Z,80.20
2018-09-13T22:05:48.057Z,80.50
2018-09-13T22:08:37.193Z,81.00
2018-09-13T22:11:18.555Z,81.00
2018-09-13T22:14:03.850Z,80.20
2018-09-13T22:16:47.084Z,80.70
2018-09-13T22:19:21.757Z,80.90
2018-09-13T22:22:06.484Z,80.40
2018-09-13T22:24:52.220Z,80.30
2018-09-13T22:27:47.246Z,81.20
2018-09-13T22:30:49.236Z,80.80
2018-09-13T22:34:08.461Z,80.80
2018-09-13T22:37:02.708Z,79.90
2018-09-13T22:39:47.019Z,80.50
2018-09-13T22:42:24.658Z,81.20
2018-09-13T22:45:06.521Z,81.50
2018-09-13T22:47:51.214Z,81.80
2018-09-13T22:50:31.717Z,81.00
2018-09-13T22:53:14.119Z,81.40
2018-09-13T22:55:54.259Z,81.50
2018-09-13T22:58:36.120Z,81.70
2018-09-13T23:01:17.596Z,81.50
2018-09-13T23:04:08.379Z,80.80
2018-09-13T23:06:49.932Z,80.80
2018-09-13T23:09:41.509Z,80.60
2018-09-13T23:12:23.193Z,81.70
2018-09-13T23:15:15.976Z,81.60
2018-09-13T23:18:06.358Z,81.50
2018-09-13T23:21:00.508Z,81.70
2018-09-13T23:23:44.561Z,81.50
2018-09-13T23:26:43.992Z,81.60
2018-09-13T23:29:44.486Z,81.70
2018-09-13T23:33:05.442Z,81.70
2018-09-13T23:36:01.064Z,81.70
2018-09-13T23:38:54.880Z,81.70
2018-09-13T23:41:42.967Z,81.80
2018-09-13T23:44:19.006Z,81.50
2018-09-13T23:47:04.846Z,80.10
2018-09-13T23:49:49.487Z,79.80
2018-09-13T23:52:33.356Z,79.70
2018-09-13T23:55:18.371Z,79.20
2018-09-13T23:58:01.619Z,79.30
